Aviation Digital Data Service (ADDS)

Output produced by METARs form (2132 UTC 24 February 2018)
found at http://aviationweather.gov/adds/metars/
 
KDEN 242059Z 2421/2524 29017G26KT P6SM FEW070 SCT160 
     FM242300 30014KT P6SM FEW160 
     FM250100 26007KT P6SM SCT200 
     FM250500 21010KT P6SM BKN200 
     FM251500 24008KT P6SM SCT100 BKN200 
     FM251900 27013KT P6SM SCT100 BKN200